createdAt,value
2019-02-16T00:00:46.414Z,82.20
2019-02-16T00:01:46.413Z,75.40
2019-02-16T00:02:46.450Z,86.40
2019-02-16T00:03:46.420Z,81.80
2019-02-16T00:04:46.377Z,79.90
2019-02-16T00:05:46.362Z,71.30
2019-02-16T00:06:46.350Z,74.80
2019-02-16T00:07:46.373Z,82.00
2019-02-16T00:08:46.333Z,75.60
2019-02-16T00:09:46.330Z,70.90
2019-02-16T00:10:46.304Z,67.40
2019-02-16T00:11:46.313Z,79.60
2019-02-16T00:12:46.290Z,72.00
2019-02-16T00:13:46.276Z,75.80
2019-02-16T00:14:46.269Z,77.80
2019-02-16T00:15:46.252Z,77.00
2019-02-16T00:16:46.340Z,71.50
2019-02-16T00:17:46.243Z,69.90
2019-02-16T00:18:46.220Z,76.50
2019-02-16T00:19:46.240Z,74.90
2019-02-16T00:20:46.201Z,76.20
2019-02-16T00:21:46.258Z,68.50
2019-02-16T00:22:46.180Z,71.30
2019-02-16T00:23:46.200Z,74.40
2019-02-16T00:24:46.195Z,72.40
2019-02-16T00:25:46.150Z,74.20
2019-02-16T00:26:46.137Z,80.10
2019-02-16T00:27:46.126Z,71.80
2019-02-16T00:28:46.127Z,72.20
2019-02-16T00:29:46.100Z,83.50
2019-02-16T00:30:46.102Z,72.50
2019-02-16T00:31:46.113Z,72.30
2019-02-16T00:32:46.088Z,75.50
2019-02-16T00:33:46.056Z,71.10
2019-02-16T00:34:46.051Z,69.30
2019-02-16T00:35:46.038Z,70.60
2019-02-16T00:36:46.024Z,81.30
2019-02-16T00:37:46.025Z,73.00
2019-02-16T00:38:46.014Z,72.00
2019-02-16T00:39:45.998Z,76.40
2019-02-16T00:40:45.985Z,71.00
2019-02-16T00:41:45.983Z,72.20
2019-02-16T00:42:45.962Z,65.80
2019-02-16T00:43:45.959Z,70.80
2019-02-16T00:44:45.942Z,74.50
2019-02-16T00:45:45.929Z,76.00
2019-02-16T00:46:45.921Z,75.50
2019-02-16T00:47:45.916Z,74.70
2019-02-16T00:48:45.904Z,81.50
2019-02-16T00:49:45.889Z,81.80
2019-02-16T00:50:45.871Z,72.10
2019-02-16T00:51:45.862Z,75.60
2019-02-16T00:52:45.880Z,82.60
2019-02-16T00:53:45.840Z,86.40
2019-02-16T00:54:45.832Z,76.80
2019-02-16T00:55:45.827Z,80.00
2019-02-16T00:56:45.806Z,78.90
2019-02-16T00:57:45.810Z,81.20
2019-02-16T00:58:45.805Z,76.40
2019-02-16T00:59:45.789Z,79.90
2019-02-16T01:00:45.767Z,81.00
2019-02-16T01:01:45.807Z,86.20
2019-02-16T01:02:45.784Z,77.80
2019-02-16T01:03:45.741Z,82.50
2019-02-16T01:04:45.722Z,74.00
2019-02-16T01:05:45.725Z,75.30
2019-02-16T01:06:45.748Z,73.40
2019-02-16T01:07:45.693Z,72.40
2019-02-16T01:08:45.693Z,80.00
2019-02-16T01:09:45.665Z,73.10
2019-02-16T01:10:45.657Z,83.60
2019-02-16T01:11:45.657Z,83.60
2019-02-16T01:12:45.637Z,76.70
2019-02-16T01:13:45.667Z,66.80
2019-02-16T01:14:45.614Z,81.10
2019-02-16T01:15:45.601Z,74.10
2019-02-16T01:16:45.596Z,81.90
2019-02-16T01:17:45.581Z,83.30
2019-02-16T01:18:45.581Z,80.60
2019-02-16T01:19:45.566Z,92.00
2019-02-16T01:20:45.640Z,81.70
2019-02-16T01:21:45.552Z,81.50
2019-02-16T01:22:45.542Z,76.00
2019-02-16T01:23:45.531Z,81.20
2019-02-16T01:24:46.478Z,85.10
2019-02-16T01:25:45.504Z,78.30
2019-02-16T01:26:45.482Z,73.90
2019-02-16T01:27:45.480Z,86.20
2019-02-16T01:28:45.472Z,81.30
2019-02-16T01:29:45.468Z,74.50
2019-02-16T01:30:45.438Z,86.00
2019-02-16T01:31:45.427Z,74.40
2019-02-16T01:32:45.417Z,69.80
2019-02-16T01:33:45.640Z,75.70
2019-02-16T01:34:45.402Z,63.80
2019-02-16T01:35:45.386Z,68.10
2019-02-16T01:36:45.373Z,78.70
2019-02-16T01:37:45.372Z,75.80
2019-02-16T01:38:45.364Z,76.20
2019-02-16T01:39:45.356Z,80.90
2019-02-16T01:40:45.334Z,80.40
2019-02-16T01:41:47.448Z,79.60
2019-02-16T01:42:45.310Z,81.10
2019-02-16T01:43:45.313Z,86.70
2019-02-16T01:44:45.289Z,76.70
2019-02-16T01:45:45.277Z,76.60
2019-02-16T01:46:45.306Z,89.10
2019-02-16T01:47:45.279Z,80.80
2019-02-16T01:48:45.260Z,92.90
2019-02-16T01:49:45.293Z,82.60
2019-02-16T01:50:45.222Z,83.80
2019-02-16T01:51:45.212Z,80.80
2019-02-16T01:52:45.203Z,84.30
2019-02-16T01:53:45.229Z,85.10
2019-02-16T01:54:45.184Z,85.30
2019-02-16T01:55:45.171Z,79.70
2019-02-16T01:56:45.160Z,82.20
2019-02-16T01:57:45.145Z,94.30
2019-02-16T01:58:45.172Z,79.00
2019-02-16T01:59:45.125Z,82.60
2019-02-16T02:00:45.136Z,77.20
2019-02-16T02:01:45.103Z,69.50
2019-02-16T02:02:45.093Z,81.70
2019-02-16T02:03:45.140Z,79.30
2019-02-16T02:04:45.077Z,71.40
2019-02-16T02:05:45.060Z,71.00
2019-02-16T02:06:45.049Z,81.10
2019-02-16T02:07:45.047Z,74.00
2019-02-16T02:08:45.032Z,76.80
2019-02-16T02:09:45.019Z,88.80
2019-02-16T02:10:45.074Z,84.40
2019-02-16T02:11:44.999Z,74.20
2019-02-16T02:12:44.992Z,67.10
2019-02-16T02:13:44.981Z,74.40
2019-02-16T02:14:44.984Z,76.60
2019-02-16T02:15:44.982Z,78.50
2019-02-16T02:16:44.944Z,85.10
2019-02-16T02:17:45.004Z,81.10
2019-02-16T02:18:44.923Z,77.30
2019-02-16T02:19:44.920Z,82.80
2019-02-16T02:20:44.940Z,78.20
2019-02-16T02:21:44.903Z,71.30
2019-02-16T02:22:44.879Z,77.40
2019-02-16T02:23:44.871Z,82.90
2019-02-16T02:24:44.876Z,88.20
2019-02-16T02:25:44.860Z,78.20
2019-02-16T02:26:44.880Z,81.20
2019-02-16T02:27:44.831Z,78.70
2019-02-16T02:28:44.818Z,85.40
2019-02-16T02:29:44.815Z,75.00
2019-02-16T02:30:44.827Z,83.60
2019-02-16T02:31:44.800Z,76.00
2019-02-16T02:32:44.776Z,78.00
2019-02-16T02:33:44.762Z,78.60
2019-02-16T02:34:44.775Z,83.30
2019-02-16T02:35:44.737Z,78.50
2019-02-16T02:36:44.729Z,86.30
2019-02-16T02:37:44.717Z,76.40
2019-02-16T02:38:44.713Z,75.70
2019-02-16T02:39:44.748Z,80.40
2019-02-16T02:40:44.684Z,74.20
2019-02-16T02:41:44.678Z,76.30
2019-02-16T02:42:44.669Z,82.50
2019-02-16T02:43:44.655Z,81.90
2019-02-16T02:44:44.641Z,86.20
2019-02-16T02:45:44.683Z,81.30
2019-02-16T02:46:44.619Z,88.60
2019-02-16T02:47:44.630Z,83.60
2019-02-16T02:48:44.610Z,76.30
2019-02-16T02:49:44.599Z,76.00
2019-02-16T02:50:44.577Z,78.30
2019-02-16T02:51:51.693Z,77.60
2019-02-16T02:52:45.580Z,82.70
2019-02-16T02:53:44.548Z,81.10
2019-02-16T02:54:44.547Z,88.10
2019-02-16T02:55:44.531Z,81.50
2019-02-16T02:56:44.513Z,82.60
2019-02-16T02:57:44.517Z,82.60
2019-02-16T02:58:44.512Z,76.90
2019-02-16T02:59:44.489Z,74.80
2019-02-16T03:00:44.469Z,77.40
2019-02-16T03:01:44.458Z,81.10
2019-02-16T03:02:44.479Z,71.40
2019-02-16T03:03:44.439Z,78.40
2019-02-16T03:04:44.436Z,74.60
2019-02-16T03:05:44.443Z,75.40
2019-02-16T03:06:44.413Z,73.60
2019-02-16T03:07:44.393Z,84.80
2019-02-16T03:08:44.389Z,81.40
2019-02-16T03:09:44.372Z,72.30
2019-02-16T03:10:44.395Z,70.70
2019-02-16T03:11:44.363Z,74.10
2019-02-16T03:12:44.384Z,72.70
2019-02-16T03:13:44.347Z,75.30
2019-02-16T03:14:44.337Z,71.20
2019-02-16T03:15:44.309Z,74.60
2019-02-16T03:16:44.303Z,72.60
2019-02-16T03:17:44.302Z,80.40
2019-02-16T03:18:44.280Z,74.80
2019-02-16T03:19:44.265Z,75.90
2019-02-16T03:20:44.255Z,69.70
2019-02-16T03:21:44.257Z,81.00
2019-02-16T03:22:44.238Z,76.20
2019-02-16T03:23:44.233Z,71.00
2019-02-16T03:24:44.245Z,76.00
2019-02-16T03:25:44.210Z,79.60
2019-02-16T03:26:44.217Z,83.90
2019-02-16T03:27:44.181Z,74.50
2019-02-16T03:28:44.182Z,66.10
2019-02-16T03:29:44.168Z,67.70
2019-02-16T03:30:44.155Z,74.40
2019-02-16T03:31:44.144Z,75.60
2019-02-16T03:32:44.132Z,77.90
2019-02-16T03:33:44.118Z,72.90
2019-02-16T03:34:44.110Z,75.40
2019-02-16T03:35:44.116Z,75.40
2019-02-16T03:36:44.109Z,78.80
2019-02-16T03:37:44.089Z,72.50
2019-02-16T03:38:44.069Z,74.30
2019-02-16T03:39:44.055Z,73.60
2019-02-16T03:40:44.056Z,77.80
2019-02-16T03:41:44.039Z,68.60
2019-02-16T03:42:44.044Z,74.10
2019-02-16T03:43:44.013Z,73.40
2019-02-16T03:44:44.006Z,78.60
2019-02-16T03:45:43.993Z,75.10
2019-02-16T03:46:44.011Z,74.60
2019-02-16T03:47:43.970Z,85.70
2019-02-16T03:48:43.955Z,70.00
2019-02-16T03:49:43.944Z,73.40
2019-02-16T03:50:43.934Z,70.60
2019-02-16T03:51:43.947Z,79.00
2019-02-16T03:52:43.942Z,65.70
2019-02-16T03:53:43.906Z,79.40
2019-02-16T03:54:43.899Z,69.20
2019-02-16T03:55:43.888Z,74.30
2019-02-16T03:56:43.883Z,74.30
2019-02-16T03:57:43.870Z,77.50
2019-02-16T03:58:43.853Z,68.80
2019-02-16T03:59:43.844Z,71.60
2019-02-16T04:00:43.828Z,65.80
2019-02-16T04:01:43.837Z,76.10
2019-02-16T04:02:43.852Z,76.20
2019-02-16T04:03:43.801Z,71.50
2019-02-16T04:04:43.790Z,71.70
2019-02-16T04:05:43.781Z,66.70
2019-02-16T04:06:43.958Z,75.30
2019-02-16T04:07:43.755Z,67.70
2019-02-16T04:08:43.759Z,72.10
2019-02-16T04:09:43.744Z,69.40
2019-02-16T04:10:43.726Z,71.90
2019-02-16T04:11:43.713Z,72.30
2019-02-16T04:12:43.705Z,72.20
2019-02-16T04:13:43.695Z,69.80
2019-02-16T04:14:43.683Z,68.80
2019-02-16T04:15:43.682Z,77.20
2019-02-16T04:16:43.667Z,72.20
2019-02-16T04:17:43.652Z,72.80
2019-02-16T04:18:43.640Z,76.70
2019-02-16T04:19:43.626Z,64.60
2019-02-16T04:20:43.616Z,77.60
2019-02-16T04:21:43.607Z,76.80
2019-02-16T04:22:43.603Z,77.70
2019-02-16T04:23:43.591Z,76.20
2019-02-16T04:24:43.581Z,76.90
2019-02-16T04:25:43.599Z,75.60
2019-02-16T04:26:43.559Z,73.40
2019-02-16T04:27:43.564Z,73.70
2019-02-16T04:28:43.531Z,72.30
2019-02-16T04:29:43.518Z,74.60
2019-02-16T04:30:43.564Z,78.00
2019-02-16T04:31:43.504Z,77.10
2019-02-16T04:32:43.496Z,68.00
2019-02-16T04:33:43.497Z,73.10
2019-02-16T04:34:43.466Z,71.10
2019-02-16T04:35:43.462Z,71.50
2019-02-16T04:36:43.447Z,65.50
2019-02-16T04:37:43.448Z,75.00
2019-02-16T04:38:43.429Z,73.90
2019-02-16T04:39:43.411Z,72.80
2019-02-16T04:40:43.399Z,72.10
2019-02-16T04:41:43.425Z,69.50
2019-02-16T04:42:43.421Z,67.10
2019-02-16T04:43:43.381Z,64.90
2019-02-16T04:44:43.379Z,62.70
2019-02-16T04:45:43.348Z,62.60
2019-02-16T04:46:43.343Z,68.00
2019-02-16T04:47:43.344Z,63.40
2019-02-16T04:48:43.322Z,68.90
2019-02-16T04:49:43.316Z,66.80
2019-02-16T04:50:43.311Z,67.20
2019-02-16T04:51:43.298Z,69.60
2019-02-16T04:52:43.293Z,67.70
2019-02-16T04:53:43.284Z,66.80
2019-02-16T04:54:43.250Z,69.30
2019-02-16T04:55:43.244Z,69.30
2019-02-16T04:56:43.238Z,67.60
2019-02-16T04:57:43.235Z,69.10
2019-02-16T04:58:43.216Z,69.60
2019-02-16T04:59:43.215Z,70.30
2019-02-16T05:00:43.193Z,75.90
2019-02-16T05:01:43.175Z,72.80
2019-02-16T05:02:43.184Z,76.90
2019-02-16T05:03:43.167Z,72.70
2019-02-16T05:04:43.148Z,70.80
2019-02-16T05:05:43.138Z,74.00
2019-02-16T05:06:43.138Z,72.50
2019-02-16T05:07:43.124Z,74.60
2019-02-16T05:08:43.103Z,67.80
2019-02-16T05:09:43.088Z,66.80
2019-02-16T05:10:43.093Z,72.30
2019-02-16T05:11:43.069Z,69.20
2019-02-16T05:12:43.089Z,81.70
2019-02-16T05:13:43.051Z,76.60
2019-02-16T05:14:43.041Z,66.90
2019-02-16T05:15:43.036Z,69.10
2019-02-16T05:16:43.017Z,70.80
2019-02-16T05:17:43.045Z,70.70
2019-02-16T05:18:43.001Z,75.20
2019-02-16T05:19:43.003Z,71.10
2019-02-16T05:20:42.976Z,69.80
2019-02-16T05:21:42.963Z,73.10
2019-02-16T05:22:44.888Z,71.00
2019-02-16T05:23:42.951Z,76.70
2019-02-16T05:24:42.930Z,81.40
2019-02-16T05:25:42.929Z,73.20
2019-02-16T05:26:42.970Z,76.70
2019-02-16T05:27:42.915Z,70.70
2019-02-16T05:28:42.904Z,69.30
2019-02-16T05:29:42.879Z,80.20
2019-02-16T05:30:42.866Z,77.30
2019-02-16T05:31:42.858Z,75.90
2019-02-16T05:32:42.849Z,73.50
2019-02-16T05:33:42.848Z,76.50
2019-02-16T05:34:42.835Z,71.20
2019-02-16T05:35:42.814Z,74.50
2019-02-16T05:36:42.814Z,76.80
2019-02-16T05:37:42.792Z,72.10
2019-02-16T05:38:42.800Z,73.50
2019-02-16T05:39:42.770Z,71.60
2019-02-16T05:40:42.759Z,74.20
2019-02-16T05:41:42.749Z,70.30
2019-02-16T05:42:42.737Z,68.00
2019-02-16T05:43:42.742Z,68.60
2019-02-16T05:44:42.736Z,79.20
2019-02-16T05:45:42.710Z,75.20
2019-02-16T05:46:42.693Z,76.90
2019-02-16T05:47:42.691Z,73.30
2019-02-16T05:48:42.684Z,73.00
2019-02-16T05:49:42.662Z,73.10
2019-02-16T05:50:42.659Z,66.70
2019-02-16T05:51:42.641Z,70.20
2019-02-16T05:52:42.633Z,71.60
2019-02-16T05:53:42.650Z,70.70
2019-02-16T05:54:42.621Z,72.40
2019-02-16T05:55:42.608Z,69.60
2019-02-16T05:56:42.588Z,76.00
2019-02-16T05:57:42.596Z,72.00
2019-02-16T05:58:42.603Z,68.50
2019-02-16T05:59:42.554Z,66.50
2019-02-16T06:00:42.579Z,65.00
2019-02-16T06:01:42.539Z,70.60
2019-02-16T06:02:42.538Z,76.50
2019-02-16T06:03:42.512Z,71.40
2019-02-16T06:04:42.538Z,70.50
2019-02-16T06:05:42.505Z,74.10
2019-02-16T06:06:42.481Z,69.90
2019-02-16T06:07:42.487Z,75.60
2019-02-16T06:08:42.466Z,69.20
2019-02-16T06:09:42.457Z,67.30
2019-02-16T06:10:42.437Z,65.30
2019-02-16T06:11:42.446Z,66.00
2019-02-16T06:12:42.419Z,66.50
2019-02-16T06:13:42.408Z,72.50
2019-02-16T06:14:42.438Z,71.60
2019-02-16T06:15:42.382Z,70.30
2019-02-16T06:16:42.374Z,71.50
2019-02-16T06:17:42.362Z,66.60
2019-02-16T06:18:42.378Z,68.30
2019-02-16T06:19:42.361Z,66.60
2019-02-16T06:20:42.329Z,81.10
2019-02-16T06:21:42.423Z,73.50
2019-02-16T06:22:42.314Z,67.50
2019-02-16T06:23:42.301Z,70.20
2019-02-16T06:24:42.295Z,72.00
2019-02-16T06:25:42.282Z,77.30
2019-02-16T06:26:42.276Z,75.10
2019-02-16T06:27:42.256Z,73.00
2019-02-16T06:28:42.244Z,73.20
2019-02-16T06:29:42.243Z,76.00
2019-02-16T06:30:42.227Z,70.40
2019-02-16T06:31:42.218Z,65.70
2019-02-16T06:32:42.204Z,77.20
2019-02-16T06:33:42.201Z,76.40
2019-02-16T06:34:42.189Z,76.30
2019-02-16T06:35:42.189Z,77.80
2019-02-16T06:36:42.169Z,80.40
2019-02-16T06:37:42.163Z,70.60
2019-02-16T06:38:42.136Z,71.60
2019-02-16T06:39:42.185Z,72.90
2019-02-16T06:40:42.124Z,72.10
2019-02-16T06:41:42.110Z,72.70
2019-02-16T06:42:42.099Z,75.40
2019-02-16T06:43:42.105Z,79.60
2019-02-16T06:44:42.093Z,74.30
2019-02-16T06:45:42.106Z,74.40
2019-02-16T06:46:42.076Z,74.80
2019-02-16T06:47:42.059Z,69.40
2019-02-16T06:48:42.033Z,68.20
2019-02-16T06:49:42.035Z,68.70
2019-02-16T06:50:42.020Z,70.20
2019-02-16T06:51:42.008Z,74.20
2019-02-16T06:52:41.992Z,71.20
2019-02-16T06:53:41.983Z,74.00
2019-02-16T06:54:41.975Z,80.00
2019-02-16T06:55:41.991Z,71.20
2019-02-16T06:56:42.044Z,71.10
2019-02-16T06:57:41.936Z,70.00
2019-02-16T06:58:41.925Z,74.40
2019-02-16T06:59:41.914Z,70.40
2019-02-16T07:00:41.918Z,71.50
2019-02-16T07:01:41.905Z,73.00
2019-02-16T07:02:41.919Z,77.30
2019-02-16T07:03:41.902Z,71.70
2019-02-16T07:04:41.863Z,75.50
2019-02-16T07:05:41.880Z,73.90
2019-02-16T07:06:41.905Z,72.70
2019-02-16T07:07:41.835Z,70.40
2019-02-16T07:08:41.834Z,74.40
2019-02-16T07:09:41.814Z,73.70
2019-02-16T07:10:41.908Z,70.40
2019-02-16T07:11:41.785Z,67.60
2019-02-16T07:12:41.773Z,75.10
2019-02-16T07:13:41.763Z,67.60
2019-02-16T07:14:41.755Z,69.40
2019-02-16T07:15:41.751Z,72.30
2019-02-16T07:16:41.729Z,68.70
2019-02-16T07:17:41.722Z,67.50
2019-02-16T07:18:41.708Z,66.70
2019-02-16T07:19:41.704Z,66.10
2019-02-16T07:20:41.707Z,69.90
2019-02-16T07:21:41.678Z,68.30
2019-02-16T07:22:41.676Z,64.80
2019-02-16T07:23:41.661Z,63.90
2019-02-16T07:24:41.690Z,65.40
2019-02-16T07:25:41.643Z,63.00
2019-02-16T07:26:41.628Z,61.00
2019-02-16T07:27:41.616Z,58.00
2019-02-16T07:28:41.600Z,60.40
2019-02-16T07:29:41.591Z,64.70
2019-02-16T07:30:41.596Z,64.50
2019-02-16T07:31:41.678Z,61.20
2019-02-16T07:32:41.592Z,64.30
2019-02-16T07:33:41.550Z,67.60
2019-02-16T07:34:41.546Z,57.50
2019-02-16T07:35:41.535Z,54.70
2019-02-16T07:36:41.642Z,59.80
2019-02-16T07:37:41.507Z,59.20
2019-02-16T07:38:41.555Z,58.50
2019-02-16T07:39:41.483Z,57.70
2019-02-16T07:40:41.487Z,62.20
2019-02-16T07:41:41.459Z,58.40
2019-02-16T07:42:41.460Z,52.10
2019-02-16T07:43:41.448Z,51.90
2019-02-16T07:44:41.430Z,53.50
2019-02-16T07:45:41.957Z,57.30
2019-02-16T07:46:41.421Z,55.60
2019-02-16T07:47:41.451Z,52.10
2019-02-16T07:48:41.384Z,47.20
2019-02-16T07:49:41.417Z,48.80
2019-02-16T07:50:41.361Z,53.90
2019-02-16T07:51:41.363Z,47.20
2019-02-16T07:52:41.353Z,46.30
2019-02-16T07:53:41.330Z,44.60
2019-02-16T07:54:41.322Z,48.80
2019-02-16T07:55:41.308Z,49.20
2019-02-16T07:56:41.304Z,44.80
2019-02-16T07:57:41.284Z,46.50
2019-02-16T07:58:41.279Z,45.80
2019-02-16T07:59:41.332Z,46.00
2019-02-16T08:00:41.258Z,45.10
2019-02-16T08:01:41.251Z,47.60
2019-02-16T08:02:41.229Z,46.30
2019-02-16T08:03:41.220Z,48.40
2019-02-16T08:04:41.214Z,44.60
2019-02-16T08:05:41.198Z,46.90
2019-02-16T08:06:41.281Z,46.50
2019-02-16T08:07:42.779Z,49.10
2019-02-16T08:08:41.170Z,41.80
2019-02-16T08:09:41.153Z,45.00
2019-02-16T08:10:41.187Z,45.70
2019-02-16T08:11:41.168Z,43.40
2019-02-16T08:12:41.130Z,41.90
2019-02-16T08:13:41.116Z,44.30
2019-02-16T08:14:41.127Z,45.30
2019-02-16T08:15:41.092Z,43.30
2019-02-16T08:16:41.090Z,46.40
2019-02-16T08:17:41.101Z,43.60
2019-02-16T08:18:41.068Z,41.70
2019-02-16T08:19:41.085Z,39.80
2019-02-16T08:20:41.192Z,45.10
2019-02-16T08:21:41.390Z,36.30
2019-02-16T08:22:41.189Z,38.80
2019-02-16T08:23:41.070Z,34.50
2019-02-16T08:24:41.060Z,30.20
2019-02-16T08:25:41.002Z,33.40
2019-02-16T08:26:40.985Z,32.40
2019-02-16T08:27:40.967Z,28.50
2019-02-16T08:28:40.948Z,28.30
2019-02-16T08:29:40.939Z,27.20
2019-02-16T08:30:40.929Z,27.50
2019-02-16T08:31:40.922Z,24.50
2019-02-16T08:32:40.907Z,28.80
2019-02-16T08:33:40.902Z,24.30
2019-02-16T08:34:40.885Z,28.00
2019-02-16T08:35:40.899Z,23.00
2019-02-16T08:36:40.884Z,24.80
2019-02-16T08:37:40.852Z,25.40
2019-02-16T08:38:40.838Z,25.90
2019-02-16T08:39:40.893Z,23.90
2019-02-16T08:40:43.518Z,26.10
2019-02-16T08:41:41.621Z,23.70
2019-02-16T08:42:41.007Z,21.20
2019-02-16T08:43:40.907Z,24.20
2019-02-16T08:44:40.772Z,20.70
2019-02-16T08:45:40.761Z,22.30
2019-02-16T08:46:40.871Z,20.30
2019-02-16T08:47:40.802Z,24.70
2019-02-16T08:48:40.787Z,23.00
2019-02-16T08:49:40.813Z,24.80
2019-02-16T08:50:40.718Z,24.00
2019-02-16T08:51:40.753Z,23.80
2019-02-16T08:52:40.690Z,21.40
2019-02-16T08:53:49.299Z,21.90
2019-02-16T08:54:41.754Z,28.50
2019-02-16T08:55:40.671Z,23.90
2019-02-16T08:56:40.674Z,21.90
2019-02-16T08:57:40.814Z,20.80
2019-02-16T08:58:40.728Z,27.60
2019-02-16T08:59:40.645Z,21.20
2019-02-16T09:00:40.599Z,19.70
2019-02-16T09:01:40.590Z,19.90
2019-02-16T09:02:40.614Z,20.80
2019-02-16T09:03:40.573Z,19.10
2019-02-16T09:04:40.559Z,24.70
2019-02-16T09:05:40.599Z,21.80
2019-02-16T09:06:40.535Z,19.30
2019-02-16T09:07:40.535Z,20.60
2019-02-16T09:08:40.519Z,19.60
2019-02-16T09:09:40.510Z,20.70
2019-02-16T09:10:40.572Z,20.90
2019-02-16T09:11:40.486Z,16.50
2019-02-16T09:12:40.476Z,17.80
2019-02-16T09:13:40.477Z,18.20
2019-02-16T09:14:40.450Z,21.50
2019-02-16T09:15:40.771Z,21.50
2019-02-16T09:16:40.437Z,20.30
2019-02-16T09:17:40.568Z,20.00
2019-02-16T09:18:40.409Z,22.30
2019-02-16T09:19:40.412Z,19.90
2019-02-16T09:20:40.490Z,20.20
2019-02-16T09:21:40.464Z,23.80
2019-02-16T09:22:40.502Z,18.00
2019-02-16T09:23:40.613Z,17.00
2019-02-16T09:24:40.361Z,22.30
2019-02-16T09:25:40.332Z,19.70
2019-02-16T09:26:40.342Z,18.50
2019-02-16T09:27:40.344Z,20.90
2019-02-16T09:28:40.307Z,22.40
2019-02-16T09:29:40.287Z,21.90
2019-02-16T09:30:40.345Z,19.30
2019-02-16T09:31:40.304Z,19.90
2019-02-16T09:32:40.259Z,20.70
2019-02-16T09:33:40.247Z,20.30
2019-02-16T09:34:40.242Z,20.60
2019-02-16T09:35:40.889Z,16.10
2019-02-16T09:36:40.646Z,19.80
2019-02-16T09:37:40.207Z,18.00
2019-02-16T09:38:40.524Z,20.40
2019-02-16T09:39:40.185Z,18.40
2019-02-16T09:40:40.193Z,16.50
2019-02-16T09:41:40.159Z,15.60
2019-02-16T09:42:40.151Z,17.20
2019-02-16T09:43:40.244Z,19.30
2019-02-16T09:44:40.331Z,20.00
2019-02-16T09:45:40.375Z,22.30
2019-02-16T09:46:40.103Z,17.80
2019-02-16T09:47:40.140Z,19.90
2019-02-16T09:48:40.083Z,14.90
2019-02-16T09:49:40.197Z,20.50
2019-02-16T09:50:40.773Z,17.90
2019-02-16T09:51:40.164Z,23.60
2019-02-16T09:52:40.142Z,19.60
2019-02-16T09:53:40.160Z,19.30
2019-02-16T09:54:42.018Z,18.20
2019-02-16T09:55:40.406Z,18.00
2019-02-16T09:56:40.308Z,23.80
2019-02-16T09:57:40.021Z,19.10
2019-02-16T09:58:40.003Z,20.10
2019-02-16T09:59:40.017Z,18.90
2019-02-16T10:00:40.055Z,23.60
2019-02-16T10:01:40.023Z,20.30
2019-02-16T10:02:39.935Z,18.90
2019-02-16T10:03:40.411Z,17.80
2019-02-16T10:04:39.933Z,22.40
2019-02-16T10:05:39.983Z,19.60
2019-02-16T10:06:39.892Z,19.30
2019-02-16T10:07:39.878Z,20.00
2019-02-16T10:08:39.886Z,18.60
2019-02-16T10:09:39.872Z,29.20
2019-02-16T10:10:41.560Z,21.90
2019-02-16T10:11:39.845Z,20.30
2019-02-16T10:12:39.861Z,23.00
2019-02-16T10:13:39.858Z,24.00
2019-02-16T10:14:39.898Z,23.50
2019-02-16T10:15:39.848Z,25.40
2019-02-16T10:16:39.788Z,21.80
2019-02-16T10:17:39.785Z,23.70
2019-02-16T10:18:39.764Z,24.90
2019-02-16T10:19:39.770Z,22.40
2019-02-16T10:20:40.468Z,21.30
2019-02-16T10:21:39.731Z,18.90
2019-02-16T10:22:40.201Z,19.80
2019-02-16T10:23:39.718Z,18.00
2019-02-16T10:24:39.706Z,20.50
2019-02-16T10:25:39.689Z,20.70
2019-02-16T10:26:39.691Z,18.20
2019-02-16T10:27:39.717Z,17.70
2019-02-16T10:28:39.653Z,17.80
2019-02-16T10:29:39.830Z,18.00
2019-02-16T10:30:39.634Z,17.00
2019-02-16T10:31:39.623Z,18.70
2019-02-16T10:32:39.614Z,18.80
2019-02-16T10:33:39.601Z,18.30
2019-02-16T10:34:39.607Z,19.10
2019-02-16T10:35:39.599Z,23.70
2019-02-16T10:36:39.590Z,20.00
2019-02-16T10:37:39.561Z,21.90
2019-02-16T10:38:39.597Z,26.00
2019-02-16T10:39:39.567Z,25.80
2019-02-16T10:40:39.533Z,23.90
2019-02-16T10:41:39.521Z,20.00
2019-02-16T10:42:39.512Z,22.00
2019-02-16T10:43:39.510Z,22.40
2019-02-16T10:44:39.503Z,18.10
2019-02-16T10:45:39.541Z,18.70
2019-02-16T10:46:39.481Z,21.20
2019-02-16T10:47:39.481Z,18.70
2019-02-16T10:48:39.467Z,21.10
2019-02-16T10:49:39.597Z,18.70
2019-02-16T10:50:39.482Z,18.30
2019-02-16T10:51:39.414Z,25.10
2019-02-16T10:52:39.661Z,20.40
2019-02-16T10:53:39.401Z,22.20
2019-02-16T10:54:39.390Z,23.40
2019-02-16T10:55:39.383Z,20.70
2019-02-16T10:56:39.483Z,21.70
2019-02-16T10:57:39.352Z,23.50
2019-02-16T10:58:39.387Z,23.60
2019-02-16T10:59:39.338Z,20.20
2019-02-16T11:00:39.823Z,21.40
2019-02-16T11:01:39.306Z,18.20
2019-02-16T11:02:39.303Z,18.60
2019-02-16T11:03:39.289Z,23.40
2019-02-16T11:04:39.295Z,23.60
2019-02-16T11:05:39.277Z,19.00
2019-02-16T11:06:39.281Z,18.80
2019-02-16T11:07:39.243Z,22.70
2019-02-16T11:08:39.230Z,18.60
2019-02-16T11:09:39.259Z,18.90
2019-02-16T11:10:39.230Z,19.10
2019-02-16T11:11:39.213Z,20.10
2019-02-16T11:12:39.202Z,19.60
2019-02-16T11:13:39.303Z,20.80
2019-02-16T11:14:39.174Z,20.10
2019-02-16T11:15:39.599Z,24.40
2019-02-16T11:16:39.222Z,24.60
2019-02-16T11:17:39.173Z,22.10
2019-02-16T11:18:39.130Z,19.80
2019-02-16T11:19:39.118Z,22.70
2019-02-16T11:20:40.478Z,19.40
2019-02-16T11:21:39.130Z,29.60
2019-02-16T11:22:39.168Z,24.30
2019-02-16T11:23:39.129Z,23.30
2019-02-16T11:24:39.232Z,18.30
2019-02-16T11:25:39.059Z,19.40
2019-02-16T11:26:39.058Z,26.80
2019-02-16T11:27:40.422Z,25.40
2019-02-16T11:28:39.026Z,27.10
2019-02-16T11:29:39.022Z,20.90
2019-02-16T11:30:39.025Z,20.70
2019-02-16T11:31:39.006Z,20.40
2019-02-16T11:32:39.123Z,18.10
2019-02-16T11:33:38.993Z,20.10
2019-02-16T11:34:38.994Z,22.50
2019-02-16T11:35:40.345Z,19.20
2019-02-16T11:36:39.005Z,21.60
2019-02-16T11:37:38.961Z,18.10
2019-02-16T11:38:38.926Z,17.90
2019-02-16T11:39:38.917Z,18.60
2019-02-16T11:40:38.927Z,20.40
2019-02-16T11:41:38.973Z,20.50
2019-02-16T11:42:38.892Z,23.00
2019-02-16T11:43:40.958Z,31.50
2019-02-16T11:44:38.924Z,21.70
2019-02-16T11:45:38.859Z,20.70
2019-02-16T11:46:38.878Z,21.10
2019-02-16T11:47:38.837Z,19.80
2019-02-16T11:48:38.830Z,19.20
2019-02-16T11:49:38.848Z,21.10
2019-02-16T11:50:38.815Z,18.90
2019-02-16T11:51:38.827Z,18.30
2019-02-16T11:52:38.806Z,19.90
2019-02-16T11:53:38.847Z,40.10
2019-02-16T11:54:45.519Z,34.80
2019-02-16T11:55:39.809Z,19.60
2019-02-16T11:56:38.758Z,23.10
2019-02-16T11:57:38.749Z,52.40
2019-02-16T11:58:38.730Z,19.20
2019-02-16T11:59:38.740Z,25.00
2019-02-16T12:00:40.188Z,26.30
2019-02-16T12:01:40.714Z,25.40
2019-02-16T12:02:40.059Z,22.20
2019-02-16T12:03:38.685Z,21.70
2019-02-16T12:04:38.683Z,21.70
2019-02-16T12:05:38.648Z,22.00
2019-02-16T12:06:38.721Z,24.10
2019-02-16T12:07:38.641Z,26.40
2019-02-16T12:08:38.620Z,23.60
2019-02-16T12:09:38.613Z,26.70
2019-02-16T12:10:38.600Z,27.00
2019-02-16T12:11:38.588Z,22.80
2019-02-16T12:12:38.592Z,21.90
2019-02-16T12:13:38.564Z,60.80
2019-02-16T12:14:38.556Z,24.70
2019-02-16T12:15:38.573Z,21.50
2019-02-16T12:16:38.541Z,26.00
2019-02-16T12:17:38.631Z,22.70
2019-02-16T12:18:38.581Z,21.40
2019-02-16T12:19:38.507Z,24.60
2019-02-16T12:20:38.488Z,24.70
2019-02-16T12:21:38.497Z,26.40
2019-02-16T12:22:38.497Z,24.70
2019-02-16T12:23:39.149Z,27.90
2019-02-16T12:24:38.449Z,24.30
2019-02-16T12:25:38.507Z,25.90
2019-02-16T12:26:38.441Z,24.80
2019-02-16T12:27:40.450Z,27.50
2019-02-16T12:28:38.483Z,24.80
2019-02-16T12:29:38.405Z,25.60
2019-02-16T12:30:38.386Z,30.40
2019-02-16T12:31:38.404Z,26.20
2019-02-16T12:32:38.398Z,26.60
2019-02-16T12:33:38.390Z,27.70
2019-02-16T12:34:38.420Z,29.20
2019-02-16T12:35:38.353Z,25.90
2019-02-16T12:36:38.335Z,26.10
2019-02-16T12:37:38.325Z,23.60
2019-02-16T12:38:38.333Z,27.40
2019-02-16T12:39:38.284Z,25.70
2019-02-16T12:40:38.358Z,23.40
2019-02-16T12:41:38.261Z,28.20
2019-02-16T12:42:38.254Z,23.70
2019-02-16T12:43:38.256Z,30.40
2019-02-16T12:44:38.249Z,34.70
2019-02-16T12:45:38.260Z,24.50
2019-02-16T12:46:38.268Z,24.80
2019-02-16T12:47:38.212Z,25.90
2019-02-16T12:48:38.211Z,40.80
2019-02-16T12:49:38.192Z,31.70
2019-02-16T12:50:38.196Z,22.60
2019-02-16T12:51:38.164Z,24.80
2019-02-16T12:52:38.148Z,28.60